sensor_id;sensor_type;location;lat;lon;timestamp;P1;durP1;ratioP1;P2;durP2;ratioP2
17725;SDS011;8983;53.156;17.960;2022-07-10T00:01:06;3.07;;;1.50;;
17725;SDS011;8983;53.156;17.960;2022-07-10T00:03:34;2.30;;;1.50;;
17725;SDS011;8983;53.156;17.960;2022-07-10T00:06:02;6.33;;;1.37;;
17725;SDS011;8983;53.156;17.960;2022-07-10T00:08:30;2.53;;;1.30;;
17725;SDS011;8983;53.156;17.960;2022-07-10T00:11:00;3.33;;;1.30;;
17725;SDS011;8983;53.156;17.960;2022-07-10T00:13:28;3.73;;;1.60;;
17725;SDS011;8983;53.156;17.960;2022-07-10T00:15:56;1.10;;;1.00;;
17725;SDS011;8983;53.156;17.960;2022-07-10T00:18:24;2.10;;;1.17;;
17725;SDS011;8983;53.156;17.960;2022-07-10T00:20:52;3.03;;;1.30;;
17725;SDS011;8983;53.156;17.960;2022-07-10T00:23:20;3.43;;;1.57;;
17725;SDS011;8983;53.156;17.960;2022-07-10T00:25:49;2.00;;;1.20;;
17725;SDS011;8983;53.156;17.960;2022-07-10T00:28:18;2.57;;;1.40;;
17725;SDS011;8983;53.156;17.960;2022-07-10T00:30:46;2.07;;;1.80;;
17725;SDS011;8983;53.156;17.960;2022-07-10T00:33:14;2.00;;;1.73;;
17725;SDS011;8983;53.156;17.960;2022-07-10T00:35:42;3.87;;;1.90;;
17725;SDS011;8983;53.156;17.960;2022-07-10T00:38:10;3.07;;;1.80;;
17725;SDS011;8983;53.156;17.960;2022-07-10T00:40:39;5.87;;;1.90;;
17725;SDS011;8983;53.156;17.960;2022-07-10T00:43:07;4.23;;;2.17;;
17725;SDS011;8983;53.156;17.960;2022-07-10T00:45:38;4.37;;;1.90;;
17725;SDS011;8983;53.156;17.960;2022-07-10T00:48:06;2.93;;;2.47;;
17725;SDS011;8983;53.156;17.960;2022-07-10T00:50:35;2.43;;;1.90;;
17725;SDS011;8983;53.156;17.960;2022-07-10T00:53:03;1.80;;;1.70;;
17725;SDS011;8983;53.156;17.960;2022-07-10T00:55:32;3.93;;;2.17;;
17725;SDS011;8983;53.156;17.960;2022-07-10T00:58:01;2.60;;;2.10;;
17725;SDS011;8983;53.156;17.960;2022-07-10T01:00:30;2.10;;;1.83;;
17725;SDS011;8983;53.156;17.960;2022-07-10T01:03:00;2.53;;;2.23;;
17725;SDS011;8983;53.156;17.960;2022-07-10T01:05:28;2.93;;;2.17;;
17725;SDS011;8983;53.156;17.960;2022-07-10T01:07:56;3.23;;;1.93;;
17725;SDS011;8983;53.156;17.960;2022-07-10T01:10:24;4.13;;;2.00;;
17725;SDS011;8983;53.156;17.960;2022-07-10T01:12:52;2.70;;;2.20;;
17725;SDS011;8983;53.156;17.960;2022-07-10T01:15:21;2.90;;;2.30;;
17725;SDS011;8983;53.156;17.960;2022-07-10T01:17:49;4.80;;;2.27;;
17725;SDS011;8983;53.156;17.960;2022-07-10T01:20:21;3.57;;;2.30;;
17725;SDS011;8983;53.156;17.960;2022-07-10T01:22:59;4.07;;;2.30;;
17725;SDS011;8983;53.156;17.960;2022-07-10T01:25:28;5.30;;;2.73;;
17725;SDS011;8983;53.156;17.960;2022-07-10T01:27:56;2.40;;;2.20;;
17725;SDS011;8983;53.156;17.960;2022-07-10T01:30:25;4.33;;;1.93;;
17725;SDS011;8983;53.156;17.960;2022-07-10T01:32:53;5.83;;;2.63;;
17725;SDS011;8983;53.156;17.960;2022-07-10T01:35:21;2.60;;;2.23;;
17725;SDS011;8983;53.156;17.960;2022-07-10T01:37:49;3.80;;;2.40;;
17725;SDS011;8983;53.156;17.960;2022-07-10T01:40:18;3.00;;;2.10;;
17725;SDS011;8983;53.156;17.960;2022-07-10T01:42:46;2.57;;;2.10;;
17725;SDS011;8983;53.156;17.960;2022-07-10T01:45:15;2.33;;;1.90;;
17725;SDS011;8983;53.156;17.960;2022-07-10T01:47:44;3.07;;;2.00;;
17725;SDS011;8983;53.156;17.960;2022-07-10T01:50:12;2.67;;;2.00;;
17725;SDS011;8983;53.156;17.960;2022-07-10T01:52:40;2.20;;;1.97;;
17725;SDS011;8983;53.156;17.960;2022-07-10T01:55:08;3.20;;;1.90;;
17725;SDS011;8983;53.156;17.960;2022-07-10T01:57:38;5.60;;;2.03;;
17725;SDS011;8983;53.156;17.960;2022-07-10T02:00:06;3.43;;;1.97;;
17725;SDS011;8983;53.156;17.960;2022-07-10T02:02:35;1.83;;;1.70;;
17725;SDS011;8983;53.156;17.960;2022-07-10T02:05:04;2.10;;;1.90;;
17725;SDS011;8983;53.156;17.960;2022-07-10T02:07:31;2.43;;;1.67;;
17725;SDS011;8983;53.156;17.960;2022-07-10T02:09:59;2.70;;;1.90;;
17725;SDS011;8983;53.156;17.960;2022-07-10T02:12:27;4.70;;;1.80;;
17725;SDS011;8983;53.156;17.960;2022-07-10T02:14:57;3.40;;;1.77;;
17725;SDS011;8983;53.156;17.960;2022-07-10T02:17:26;2.73;;;1.37;;
17725;SDS011;8983;53.156;17.960;2022-07-10T02:19:54;2.93;;;1.40;;
17725;SDS011;8983;53.156;17.960;2022-07-10T02:22:22;2.50;;;1.27;;
17725;SDS011;8983;53.156;17.960;2022-07-10T02:24:50;1.87;;;1.37;;
17725;SDS011;8983;53.156;17.960;2022-07-10T02:27:19;2.60;;;1.50;;
17725;SDS011;8983;53.156;17.960;2022-07-10T02:29:47;3.60;;;2.13;;
17725;SDS011;8983;53.156;17.960;2022-07-10T02:32:16;1.93;;;1.77;;
17725;SDS011;8983;53.156;17.960;2022-07-10T02:34:44;3.30;;;1.77;;
17725;SDS011;8983;53.156;17.960;2022-07-10T02:37:12;4.37;;;2.10;;
17725;SDS011;8983;53.156;17.960;2022-07-10T02:39:41;2.90;;;1.87;;
17725;SDS011;8983;53.156;17.960;2022-07-10T02:42:09;3.33;;;2.00;;
17725;SDS011;8983;53.156;17.960;2022-07-10T02:44:37;3.63;;;2.10;;
17725;SDS011;8983;53.156;17.960;2022-07-10T02:47:05;4.23;;;1.93;;
17725;SDS011;8983;53.156;17.960;2022-07-10T02:49:34;4.33;;;2.47;;
17725;SDS011;8983;53.156;17.960;2022-07-10T02:52:03;3.47;;;2.30;;
17725;SDS011;8983;53.156;17.960;2022-07-10T02:54:31;4.57;;;2.70;;
17725;SDS011;8983;53.156;17.960;2022-07-10T02:56:59;2.93;;;2.30;;
17725;SDS011;8983;53.156;17.960;2022-07-10T02:59:27;2.97;;;2.10;;
17725;SDS011;8983;53.156;17.960;2022-07-10T03:01:55;5.93;;;2.00;;
17725;SDS011;8983;53.156;17.960;2022-07-10T03:04:23;5.93;;;1.70;;
17725;SDS011;8983;53.156;17.960;2022-07-10T03:06:53;4.13;;;1.70;;
17725;SDS011;8983;53.156;17.960;2022-07-10T03:09:21;2.93;;;2.13;;
17725;SDS011;8983;53.156;17.960;2022-07-10T03:11:49;3.50;;;1.80;;
17725;SDS011;8983;53.156;17.960;2022-07-10T03:14:17;1.57;;;1.40;;
17725;SDS011;8983;53.156;17.960;2022-07-10T03:16:45;4.23;;;1.67;;
17725;SDS011;8983;53.156;17.960;2022-07-10T03:19:13;2.07;;;1.50;;
17725;SDS011;8983;53.156;17.960;2022-07-10T03:21:41;3.47;;;1.80;;
17725;SDS011;8983;53.156;17.960;2022-07-10T03:24:12;1.40;;;1.30;;
17725;SDS011;8983;53.156;17.960;2022-07-10T03:26:40;2.10;;;1.40;;
17725;SDS011;8983;53.156;17.960;2022-07-10T03:29:08;2.83;;;1.40;;
17725;SDS011;8983;53.156;17.960;2022-07-10T03:31:36;2.90;;;1.70;;
17725;SDS011;8983;53.156;17.960;2022-07-10T03:34:05;1.30;;;1.20;;
17725;SDS011;8983;53.156;17.960;2022-07-10T03:36:33;1.33;;;1.23;;
17725;SDS011;8983;53.156;17.960;2022-07-10T03:39:01;1.90;;;1.30;;
17725;SDS011;8983;53.156;17.960;2022-07-10T03:41:30;1.70;;;1.30;;
17725;SDS011;8983;53.156;17.960;2022-07-10T03:43:58;2.33;;;1.37;;
17725;SDS011;8983;53.156;17.960;2022-07-10T03:46:26;1.60;;;1.40;;
17725;SDS011;8983;53.156;17.960;2022-07-10T03:48:54;4.63;;;1.77;;
17725;SDS011;8983;53.156;17.960;2022-07-10T03:51:22;1.30;;;1.20;;
17725;SDS011;8983;53.156;17.960;2022-07-10T03:53:51;1.33;;;1.10;;
17725;SDS011;8983;53.156;17.960;2022-07-10T03:56:19;1.73;;;1.30;;
17725;SDS011;8983;53.156;17.960;2022-07-10T03:59:02;1.93;;;1.43;;
17725;SDS011;8983;53.156;17.960;2022-07-10T04:01:30;3.63;;;1.17;;
17725;SDS011;8983;53.156;17.960;2022-07-10T04:03:58;2.73;;;1.33;;
17725;SDS011;8983;53.156;17.960;2022-07-10T04:06:27;5.17;;;1.43;;
17725;SDS011;8983;53.156;17.960;2022-07-10T04:08:55;2.90;;;1.20;;
17725;SDS011;8983;53.156;17.960;2022-07-10T04:11:23;2.00;;;1.20;;
17725;SDS011;8983;53.156;17.960;2022-07-10T04:13:52;2.20;;;1.10;;
17725;SDS011;8983;53.156;17.960;2022-07-10T04:16:21;1.30;;;1.20;;
17725;SDS011;8983;53.156;17.960;2022-07-10T04:18:49;3.87;;;1.30;;
17725;SDS011;8983;53.156;17.960;2022-07-10T04:21:17;1.37;;;1.27;;
17725;SDS011;8983;53.156;17.960;2022-07-10T04:23:45;1.90;;;1.13;;
17725;SDS011;8983;53.156;17.960;2022-07-10T04:26:13;2.73;;;1.30;;
17725;SDS011;8983;53.156;17.960;2022-07-10T04:28:42;4.30;;;1.37;;
17725;SDS011;8983;53.156;17.960;2022-07-10T04:31:10;1.50;;;1.40;;
17725;SDS011;8983;53.156;17.960;2022-07-10T04:33:39;4.03;;;1.83;;
17725;SDS011;8983;53.156;17.960;2022-07-10T04:36:07;1.23;;;1.13;;
17725;SDS011;8983;53.156;17.960;2022-07-10T04:38:35;2.10;;;1.37;;
17725;SDS011;8983;53.156;17.960;2022-07-10T04:41:04;2.00;;;1.30;;
17725;SDS011;8983;53.156;17.960;2022-07-10T04:43:32;1.43;;;1.30;;
17725;SDS011;8983;53.156;17.960;2022-07-10T04:46:00;1.53;;;1.00;;
17725;SDS011;8983;53.156;17.960;2022-07-10T04:48:29;2.47;;;1.17;;
17725;SDS011;8983;53.156;17.960;2022-07-10T04:50:58;1.33;;;1.20;;
17725;SDS011;8983;53.156;17.960;2022-07-10T04:53:26;5.03;;;2.07;;
17725;SDS011;8983;53.156;17.960;2022-07-10T04:55:54;3.60;;;1.77;;
17725;SDS011;8983;53.156;17.960;2022-07-10T04:58:22;3.20;;;1.37;;
17725;SDS011;8983;53.156;17.960;2022-07-10T05:00:50;2.10;;;1.37;;
17725;SDS011;8983;53.156;17.960;2022-07-10T05:03:18;3.33;;;1.40;;
17725;SDS011;8983;53.156;17.960;2022-07-10T05:05:46;3.37;;;1.57;;
17725;SDS011;8983;53.156;17.960;2022-07-10T05:08:16;1.87;;;1.10;;
17725;SDS011;8983;53.156;17.960;2022-07-10T05:10:44;1.47;;;1.20;;
17725;SDS011;8983;53.156;17.960;2022-07-10T05:13:12;3.27;;;1.20;;
17725;SDS011;8983;53.156;17.960;2022-07-10T05:15:40;1.47;;;1.37;;
17725;SDS011;8983;53.156;17.960;2022-07-10T05:18:08;2.27;;;1.20;;
17725;SDS011;8983;53.156;17.960;2022-07-10T05:20:36;2.87;;;1.20;;
17725;SDS011;8983;53.156;17.960;2022-07-10T05:23:07;4.80;;;1.50;;
17725;SDS011;8983;53.156;17.960;2022-07-10T05:25:37;4.23;;;1.43;;
17725;SDS011;8983;53.156;17.960;2022-07-10T05:28:05;4.40;;;1.60;;
17725;SDS011;8983;53.156;17.960;2022-07-10T05:30:33;3.30;;;1.30;;
17725;SDS011;8983;53.156;17.960;2022-07-10T05:33:02;3.33;;;1.40;;
17725;SDS011;8983;53.156;17.960;2022-07-10T05:35:30;4.40;;;1.60;;
17725;SDS011;8983;53.156;17.960;2022-07-10T05:37:58;1.57;;;1.30;;
17725;SDS011;8983;53.156;17.960;2022-07-10T05:40:26;3.60;;;1.70;;
17725;SDS011;8983;53.156;17.960;2022-07-10T05:42:55;3.37;;;1.50;;
17725;SDS011;8983;53.156;17.960;2022-07-10T05:45:23;2.20;;;1.30;;
17725;SDS011;8983;53.156;17.960;2022-07-10T05:47:52;1.70;;;1.60;;
17725;SDS011;8983;53.156;17.960;2022-07-10T05:50:20;1.60;;;1.50;;
17725;SDS011;8983;53.156;17.960;2022-07-10T05:52:48;3.60;;;1.70;;
17725;SDS011;8983;53.156;17.960;2022-07-10T05:55:16;3.20;;;1.70;;
17725;SDS011;8983;53.156;17.960;2022-07-10T05:57:45;6.00;;;1.80;;
17725;SDS011;8983;53.156;17.960;2022-07-10T06:00:14;3.93;;;1.60;;
17725;SDS011;8983;53.156;17.960;2022-07-10T06:02:42;5.13;;;1.77;;
17725;SDS011;8983;53.156;17.960;2022-07-10T06:05:10;6.27;;;1.80;;
17725;SDS011;8983;53.156;17.960;2022-07-10T06:07:39;4.83;;;1.80;;
17725;SDS011;8983;53.156;17.960;2022-07-10T06:10:07;5.27;;;1.80;;
17725;SDS011;8983;53.156;17.960;2022-07-10T06:12:35;6.03;;;1.97;;
17725;SDS011;8983;53.156;17.960;2022-07-10T06:15:04;5.23;;;1.80;;
17725;SDS011;8983;53.156;17.960;2022-07-10T06:17:34;2.67;;;1.70;;
17725;SDS011;8983;53.156;17.960;2022-07-10T06:20:03;1.70;;;1.60;;
17725;SDS011;8983;53.156;17.960;2022-07-10T06:22:31;2.17;;;1.70;;
17725;SDS011;8983;53.156;17.960;2022-07-10T06:25:00;3.87;;;1.40;;
17725;SDS011;8983;53.156;17.960;2022-07-10T06:27:31;3.47;;;1.60;;
17725;SDS011;8983;53.156;17.960;2022-07-10T06:29:59;2.90;;;1.83;;
17725;SDS011;8983;53.156;17.960;2022-07-10T06:32:28;2.97;;;1.50;;
17725;SDS011;8983;53.156;17.960;2022-07-10T06:34:57;5.70;;;1.63;;
17725;SDS011;8983;53.156;17.960;2022-07-10T06:37:25;2.47;;;1.23;;
17725;SDS011;8983;53.156;17.960;2022-07-10T06:39:53;5.50;;;1.77;;
17725;SDS011;8983;53.156;17.960;2022-07-10T06:42:21;6.17;;;1.70;;
17725;SDS011;8983;53.156;17.960;2022-07-10T06:44:49;3.60;;;1.60;;
17725;SDS011;8983;53.156;17.960;2022-07-10T06:47:18;3.47;;;1.77;;
17725;SDS011;8983;53.156;17.960;2022-07-10T06:50:06;3.53;;;1.70;;
17725;SDS011;8983;53.156;17.960;2022-07-10T06:52:36;3.23;;;1.60;;
17725;SDS011;8983;53.156;17.960;2022-07-10T06:55:04;4.33;;;1.70;;
17725;SDS011;8983;53.156;17.960;2022-07-10T06:57:33;2.73;;;1.53;;
17725;SDS011;8983;53.156;17.960;2022-07-10T07:00:02;2.80;;;1.20;;
17725;SDS011;8983;53.156;17.960;2022-07-10T07:02:31;2.00;;;1.80;;
17725;SDS011;8983;53.156;17.960;2022-07-10T07:04:59;2.33;;;1.37;;
17725;SDS011;8983;53.156;17.960;2022-07-10T07:07:28;2.60;;;1.50;;
17725;SDS011;8983;53.156;17.960;2022-07-10T07:09:56;3.60;;;1.60;;
17725;SDS011;8983;53.156;17.960;2022-07-10T07:12:24;3.03;;;1.33;;
17725;SDS011;8983;53.156;17.960;2022-07-10T07:14:53;1.30;;;1.20;;
17725;SDS011;8983;53.156;17.960;2022-07-10T07:17:21;1.50;;;1.23;;
17725;SDS011;8983;53.156;17.960;2022-07-10T07:19:51;4.07;;;1.40;;
17725;SDS011;8983;53.156;17.960;2022-07-10T07:22:42;2.70;;;1.50;;
17725;SDS011;8983;53.156;17.960;2022-07-10T07:25:27;3.33;;;1.40;;
17725;SDS011;8983;53.156;17.960;2022-07-10T07:27:55;2.67;;;1.87;;
17725;SDS011;8983;53.156;17.960;2022-07-10T07:30:23;2.00;;;1.40;;
17725;SDS011;8983;53.156;17.960;2022-07-10T07:32:51;5.70;;;2.13;;
17725;SDS011;8983;53.156;17.960;2022-07-10T07:35:19;3.27;;;1.57;;
17725;SDS011;8983;53.156;17.960;2022-07-10T07:37:49;2.27;;;1.40;;
17725;SDS011;8983;53.156;17.960;2022-07-10T07:40:18;1.43;;;1.20;;
17725;SDS011;8983;53.156;17.960;2022-07-10T07:42:49;1.47;;;1.23;;
17725;SDS011;8983;53.156;17.960;2022-07-10T07:45:17;3.57;;;1.50;;
17725;SDS011;8983;53.156;17.960;2022-07-10T07:47:46;2.73;;;1.50;;
17725;SDS011;8983;53.156;17.960;2022-07-10T07:50:17;1.53;;;1.30;;
17725;SDS011;8983;53.156;17.960;2022-07-10T07:52:46;3.50;;;1.40;;
17725;SDS011;8983;53.156;17.960;2022-07-10T07:55:17;3.20;;;1.50;;
17725;SDS011;8983;53.156;17.960;2022-07-10T07:57:46;2.27;;;1.33;;
17725;SDS011;8983;53.156;17.960;2022-07-10T08:00:14;4.33;;;1.73;;
17725;SDS011;8983;53.156;17.960;2022-07-10T08:02:44;1.37;;;1.10;;
17725;SDS011;8983;53.156;17.960;2022-07-10T08:05:12;3.07;;;1.00;;
17725;SDS011;8983;53.156;17.960;2022-07-10T08:07:41;4.03;;;1.40;;
17725;SDS011;8983;53.156;17.960;2022-07-10T08:10:12;3.60;;;1.17;;
17725;SDS011;8983;53.156;17.960;2022-07-10T08:12:41;1.50;;;1.30;;
17725;SDS011;8983;53.156;17.960;2022-07-10T08:15:12;2.83;;;1.07;;
17725;SDS011;8983;53.156;17.960;2022-07-10T08:17:41;4.57;;;1.40;;
17725;SDS011;8983;53.156;17.960;2022-07-10T08:20:11;3.57;;;1.43;;
17725;SDS011;8983;53.156;17.960;2022-07-10T08:22:40;1.27;;;1.17;;
17725;SDS011;8983;53.156;17.960;2022-07-10T08:25:09;3.17;;;1.00;;
17725;SDS011;8983;53.156;17.960;2022-07-10T08:27:39;3.80;;;1.50;;
17725;SDS011;8983;53.156;17.960;2022-07-10T08:30:08;1.80;;;1.20;;
17725;SDS011;8983;53.156;17.960;2022-07-10T08:32:37;2.03;;;1.20;;
17725;SDS011;8983;53.156;17.960;2022-07-10T08:35:06;0.93;;;0.90;;
17725;SDS011;8983;53.156;17.960;2022-07-10T08:37:38;1.80;;;1.10;;
17725;SDS011;8983;53.156;17.960;2022-07-10T08:40:07;1.87;;;1.10;;
17725;SDS011;8983;53.156;17.960;2022-07-10T08:42:37;1.37;;;1.10;;
17725;SDS011;8983;53.156;17.960;2022-07-10T08:45:07;5.67;;;1.30;;
17725;SDS011;8983;53.156;17.960;2022-07-10T08:47:35;1.50;;;1.30;;
17725;SDS011;8983;53.156;17.960;2022-07-10T08:50:06;1.97;;;1.50;;
17725;SDS011;8983;53.156;17.960;2022-07-10T08:52:43;8.60;;;1.90;;
17725;SDS011;8983;53.156;17.960;2022-07-10T08:55:13;12.97;;;2.10;;
17725;SDS011;8983;53.156;17.960;2022-07-10T08:57:43;2.33;;;1.30;;
17725;SDS011;8983;53.156;17.960;2022-07-10T09:00:11;4.33;;;1.50;;
17725;SDS011;8983;53.156;17.960;2022-07-10T09:02:39;2.43;;;1.43;;
17725;SDS011;8983;53.156;17.960;2022-07-10T09:05:08;3.63;;;1.23;;
17725;SDS011;8983;53.156;17.960;2022-07-10T09:07:36;1.87;;;1.40;;
17725;SDS011;8983;53.156;17.960;2022-07-10T09:10:08;3.10;;;1.60;;
17725;SDS011;8983;53.156;17.960;2022-07-10T09:12:49;5.67;;;1.47;;
17725;SDS011;8983;53.156;17.960;2022-07-10T09:15:20;1.40;;;1.30;;
17725;SDS011;8983;53.156;17.960;2022-07-10T09:17:50;5.73;;;1.87;;
17725;SDS011;8983;53.156;17.960;2022-07-10T09:20:29;5.03;;;1.70;;
17725;SDS011;8983;53.156;17.960;2022-07-10T09:22:59;2.10;;;1.57;;
17725;SDS011;8983;53.156;17.960;2022-07-10T09:25:37;2.70;;;1.43;;
17725;SDS011;8983;53.156;17.960;2022-07-10T09:28:06;2.67;;;1.20;;
17725;SDS011;8983;53.156;17.960;2022-07-10T09:30:35;4.57;;;1.67;;
17725;SDS011;8983;53.156;17.960;2022-07-10T09:33:15;1.87;;;1.40;;
17725;SDS011;8983;53.156;17.960;2022-07-10T09:35:58;6.13;;;1.70;;
17725;SDS011;8983;53.156;17.960;2022-07-10T09:38:52;3.17;;;1.50;;
17725;SDS011;8983;53.156;17.960;2022-07-10T09:41:24;2.37;;;1.30;;
17725;SDS011;8983;53.156;17.960;2022-07-10T09:43:55;2.17;;;1.57;;
17725;SDS011;8983;53.156;17.960;2022-07-10T09:46:25;1.97;;;1.40;;
17725;SDS011;8983;53.156;17.960;2022-07-10T09:49:00;3.37;;;1.40;;
17725;SDS011;8983;53.156;17.960;2022-07-10T09:51:30;5.13;;;1.30;;
17725;SDS011;8983;53.156;17.960;2022-07-10T09:54:00;3.37;;;1.30;;
17725;SDS011;8983;53.156;17.960;2022-07-10T09:56:31;2.00;;;1.20;;
17725;SDS011;8983;53.156;17.960;2022-07-10T09:59:08;3.07;;;1.20;;
17725;SDS011;8983;53.156;17.960;2022-07-10T10:01:37;1.00;;;1.00;;
17725;SDS011;8983;53.156;17.960;2022-07-10T10:04:15;2.87;;;1.27;;
17725;SDS011;8983;53.156;17.960;2022-07-10T10:06:46;1.43;;;1.30;;
17725;SDS011;8983;53.156;17.960;2022-07-10T10:09:19;1.67;;;1.57;;
17725;SDS011;8983;53.156;17.960;2022-07-10T10:11:52;1.90;;;1.50;;
17725;SDS011;8983;53.156;17.960;2022-07-10T10:14:26;2.13;;;1.50;;
17725;SDS011;8983;53.156;17.960;2022-07-10T10:16:55;3.57;;;1.40;;
17725;SDS011;8983;53.156;17.960;2022-07-10T10:19:24;4.50;;;1.30;;
17725;SDS011;8983;53.156;17.960;2022-07-10T10:22:09;4.00;;;1.33;;
17725;SDS011;8983;53.156;17.960;2022-07-10T10:24:42;1.60;;;1.30;;
17725;SDS011;8983;53.156;17.960;2022-07-10T10:27:12;3.80;;;1.47;;
17725;SDS011;8983;53.156;17.960;2022-07-10T10:29:43;1.60;;;1.40;;
17725;SDS011;8983;53.156;17.960;2022-07-10T10:32:14;5.60;;;1.43;;
17725;SDS011;8983;53.156;17.960;2022-07-10T10:34:43;1.87;;;1.33;;
17725;SDS011;8983;53.156;17.960;2022-07-10T10:37:33;1.43;;;1.20;;
17725;SDS011;8983;53.156;17.960;2022-07-10T10:40:08;1.67;;;1.30;;
17725;SDS011;8983;53.156;17.960;2022-07-10T10:42:37;4.23;;;1.50;;
17725;SDS011;8983;53.156;17.960;2022-07-10T10:45:25;2.97;;;1.37;;
17725;SDS011;8983;53.156;17.960;2022-07-10T10:48:00;2.97;;;1.23;;
17725;SDS011;8983;53.156;17.960;2022-07-10T10:50:49;2.20;;;1.30;;
17725;SDS011;8983;53.156;17.960;2022-07-10T10:53:18;2.73;;;1.37;;
17725;SDS011;8983;53.156;17.960;2022-07-10T10:58:51;4.17;;;1.37;;
17725;SDS011;8983;53.156;17.960;2022-07-10T11:01:25;1.87;;;1.33;;
17725;SDS011;8983;53.156;17.960;2022-07-10T11:04:16;1.83;;;1.23;;
17725;SDS011;8983;53.156;17.960;2022-07-10T11:06:46;1.03;;;1.03;;
17725;SDS011;8983;53.156;17.960;2022-07-10T11:09:22;1.97;;;1.37;;
17725;SDS011;8983;53.156;17.960;2022-07-10T11:12:03;3.03;;;1.23;;
17725;SDS011;8983;53.156;17.960;2022-07-10T11:14:33;1.40;;;1.10;;
17725;SDS011;8983;53.156;17.960;2022-07-10T11:17:04;1.70;;;1.17;;
17725;SDS011;8983;53.156;17.960;2022-07-10T11:19:34;2.40;;;1.40;;
17725;SDS011;8983;53.156;17.960;2022-07-10T11:22:09;1.50;;;1.17;;
17725;SDS011;8983;53.156;17.960;2022-07-10T11:24:51;4.27;;;1.33;;
17725;SDS011;8983;53.156;17.960;2022-07-10T11:27:29;3.70;;;1.63;;
17725;SDS011;8983;53.156;17.960;2022-07-10T11:30:04;3.33;;;1.20;;
17725;SDS011;8983;53.156;17.960;2022-07-10T11:32:34;2.63;;;1.30;;
17725;SDS011;8983;53.156;17.960;2022-07-10T11:35:02;2.17;;;1.33;;
17725;SDS011;8983;53.156;17.960;2022-07-10T11:37:34;2.53;;;1.30;;
17725;SDS011;8983;53.156;17.960;2022-07-10T11:40:09;3.20;;;1.57;;
17725;SDS011;8983;53.156;17.960;2022-07-10T11:42:47;3.60;;;1.43;;
17725;SDS011;8983;53.156;17.960;2022-07-10T11:48:06;1.93;;;1.10;;
17725;SDS011;8983;53.156;17.960;2022-07-10T11:50:35;2.33;;;1.10;;
17725;SDS011;8983;53.156;17.960;2022-07-10T11:53:04;3.23;;;1.30;;
17725;SDS011;8983;53.156;17.960;2022-07-10T11:55:33;1.10;;;1.00;;
17725;SDS011;8983;53.156;17.960;2022-07-10T11:58:13;3.47;;;1.43;;
17725;SDS011;8983;53.156;17.960;2022-07-10T12:00:42;1.40;;;1.07;;
17725;SDS011;8983;53.156;17.960;2022-07-10T12:03:18;1.83;;;1.00;;
17725;SDS011;8983;53.156;17.960;2022-07-10T12:05:55;2.30;;;1.37;;
17725;SDS011;8983;53.156;17.960;2022-07-10T12:08:28;2.80;;;1.23;;
17725;SDS011;8983;53.156;17.960;2022-07-10T12:10:56;2.37;;;1.40;;
17725;SDS011;8983;53.156;17.960;2022-07-10T12:13:24;2.00;;;1.30;;
17725;SDS011;8983;53.156;17.960;2022-07-10T12:15:52;2.20;;;1.23;;
17725;SDS011;8983;53.156;17.960;2022-07-10T12:18:22;3.87;;;1.50;;
17725;SDS011;8983;53.156;17.960;2022-07-10T12:20:55;2.77;;;1.60;;
17725;SDS011;8983;53.156;17.960;2022-07-10T12:23:23;2.70;;;1.43;;
17725;SDS011;8983;53.156;17.960;2022-07-10T12:25:51;2.07;;;1.27;;
17725;SDS011;8983;53.156;17.960;2022-07-10T12:28:19;1.93;;;1.00;;
17725;SDS011;8983;53.156;17.960;2022-07-10T12:30:48;1.50;;;1.00;;
17725;SDS011;8983;53.156;17.960;2022-07-10T12:33:18;2.23;;;1.57;;
17725;SDS011;8983;53.156;17.960;2022-07-10T12:35:49;1.60;;;1.50;;
17725;SDS011;8983;53.156;17.960;2022-07-10T12:38:21;6.63;;;1.70;;
17725;SDS011;8983;53.156;17.960;2022-07-10T12:40:50;4.40;;;1.30;;
17725;SDS011;8983;53.156;17.960;2022-07-10T12:43:33;9.20;;;1.63;;
17725;SDS011;8983;53.156;17.960;2022-07-10T12:46:07;1.47;;;1.30;;
17725;SDS011;8983;53.156;17.960;2022-07-10T12:48:37;2.43;;;1.50;;
17725;SDS011;8983;53.156;17.960;2022-07-10T12:51:25;5.73;;;1.50;;
17725;SDS011;8983;53.156;17.960;2022-07-10T12:57:03;4.70;;;1.40;;
17725;SDS011;8983;53.156;17.960;2022-07-10T12:59:32;2.47;;;1.60;;
17725;SDS011;8983;53.156;17.960;2022-07-10T13:02:17;4.83;;;1.50;;
17725;SDS011;8983;53.156;17.960;2022-07-10T13:04:52;2.30;;;1.20;;
17725;SDS011;8983;53.156;17.960;2022-07-10T13:07:29;1.43;;;1.33;;
17725;SDS011;8983;53.156;17.960;2022-07-10T13:09:58;3.47;;;1.47;;
17725;SDS011;8983;53.156;17.960;2022-07-10T13:12:30;2.00;;;1.47;;
17725;SDS011;8983;53.156;17.960;2022-07-10T13:14:58;1.60;;;1.30;;
17725;SDS011;8983;53.156;17.960;2022-07-10T13:17:26;1.33;;;1.30;;
17725;SDS011;8983;53.156;17.960;2022-07-10T13:19:54;2.10;;;1.57;;
17725;SDS011;8983;53.156;17.960;2022-07-10T13:22:23;3.07;;;1.83;;
17725;SDS011;8983;53.156;17.960;2022-07-10T13:24:52;4.47;;;2.43;;
17725;SDS011;8983;53.156;17.960;2022-07-10T13:27:20;2.50;;;2.03;;
17725;SDS011;8983;53.156;17.960;2022-07-10T13:29:49;2.00;;;1.70;;
17725;SDS011;8983;53.156;17.960;2022-07-10T13:32:18;1.80;;;1.70;;
17725;SDS011;8983;53.156;17.960;2022-07-10T13:34:47;3.60;;;1.60;;
17725;SDS011;8983;53.156;17.960;2022-07-10T13:37:18;5.10;;;1.50;;
17725;SDS011;8983;53.156;17.960;2022-07-10T13:39:46;4.20;;;1.43;;
17725;SDS011;8983;53.156;17.960;2022-07-10T13:42:16;2.37;;;1.50;;
17725;SDS011;8983;53.156;17.960;2022-07-10T13:44:44;4.40;;;2.53;;
17725;SDS011;8983;53.156;17.960;2022-07-10T13:47:12;2.97;;;1.80;;
17725;SDS011;8983;53.156;17.960;2022-07-10T13:49:40;3.43;;;1.77;;
17725;SDS011;8983;53.156;17.960;2022-07-10T13:52:08;2.27;;;1.80;;
17725;SDS011;8983;53.156;17.960;2022-07-10T13:54:36;2.50;;;1.70;;
17725;SDS011;8983;53.156;17.960;2022-07-10T13:57:04;1.83;;;1.40;;
17725;SDS011;8983;53.156;17.960;2022-07-10T13:59:34;2.90;;;1.90;;
17725;SDS011;8983;53.156;17.960;2022-07-10T14:02:02;2.17;;;1.57;;
17725;SDS011;8983;53.156;17.960;2022-07-10T14:04:31;2.47;;;1.60;;
17725;SDS011;8983;53.156;17.960;2022-07-10T14:06:59;2.63;;;1.60;;
17725;SDS011;8983;53.156;17.960;2022-07-10T14:09:27;1.70;;;1.60;;
17725;SDS011;8983;53.156;17.960;2022-07-10T14:11:55;1.80;;;1.70;;
17725;SDS011;8983;53.156;17.960;2022-07-10T14:14:23;3.83;;;2.30;;
17725;SDS011;8983;53.156;17.960;2022-07-10T14:16:53;3.27;;;1.90;;
17725;SDS011;8983;53.156;17.960;2022-07-10T14:19:21;2.07;;;1.90;;
17725;SDS011;8983;53.156;17.960;2022-07-10T14:21:49;4.17;;;1.70;;
17725;SDS011;8983;53.156;17.960;2022-07-10T14:24:17;2.90;;;1.87;;
17725;SDS011;8983;53.156;17.960;2022-07-10T14:26:45;1.80;;;1.30;;
17725;SDS011;8983;53.156;17.960;2022-07-10T14:29:13;1.33;;;1.20;;
17725;SDS011;8983;53.156;17.960;2022-07-10T14:31:41;1.50;;;1.30;;
17725;SDS011;8983;53.156;17.960;2022-07-10T14:34:13;3.43;;;1.60;;
17725;SDS011;8983;53.156;17.960;2022-07-10T14:36:41;3.90;;;1.20;;
17725;SDS011;8983;53.156;17.960;2022-07-10T14:39:16;0.83;;;0.80;;
17725;SDS011;8983;53.156;17.960;2022-07-10T14:41:44;0.82;;;0.82;;
17725;SDS011;8983;53.156;17.960;2022-07-10T14:44:12;1.45;;;1.10;;
17725;SDS011;8983;53.156;17.960;2022-07-10T14:46:40;2.10;;;1.02;;
17725;SDS011;8983;53.156;17.960;2022-07-10T14:49:09;1.67;;;1.40;;
17725;SDS011;8983;53.156;17.960;2022-07-10T14:51:39;3.72;;;1.20;;
17725;SDS011;8983;53.156;17.960;2022-07-10T14:54:08;2.67;;;1.10;;
17725;SDS011;8983;53.156;17.960;2022-07-10T14:56:36;1.80;;;1.30;;
17725;SDS011;8983;53.156;17.960;2022-07-10T14:59:05;1.40;;;1.05;;
17725;SDS011;8983;53.156;17.960;2022-07-10T15:01:41;2.60;;;1.40;;
17725;SDS011;8983;53.156;17.960;2022-07-10T15:04:09;2.35;;;1.35;;
17725;SDS011;8983;53.156;17.960;2022-07-10T15:06:38;2.28;;;1.63;;
17725;SDS011;8983;53.156;17.960;2022-07-10T15:09:07;1.23;;;1.10;;
17725;SDS011;8983;53.156;17.960;2022-07-10T15:11:34;1.27;;;1.17;;
17725;SDS011;8983;53.156;17.960;2022-07-10T15:14:03;2.35;;;2.03;;